Flight Track Log - Related Links

Times and Time Zones

All times are in EDT time to prevent confusion due to time zone crossing. See the EJA953 flight status page for this flight to view local times or setup timezone preferences in your user account.

Time Position Orientation Groundspeed Altitude Reporting Facility
EDT Latitude Longitude Course Direction KTS MPH feet Rate Location/Type
Mon 07:29:08 PM 38.6292 -90.7533 245° Southwest 207 238 4,100  Level Kansas City Center
Mon 07:30:10 PM 38.5903 -90.8283 236° Southwest 212 244 7,600 3,216 Climbing Kansas City Center
Mon 07:31:13 PM 38.5489 -90.9111 237° Southwest 265 305 10,800 2,323 Climbing Kansas City Center
Mon 07:32:14 PM 38.5064 -91.0006 239° Southwest 289 333 12,400 1,632 Climbing Kansas City Center
Mon 07:33:00 PM 38.8004 -90.5528 231° Southwest  Level FlightAware Approximate
Mon 07:33:18 PM 38.4544 -91.1050 238° Southwest 340 391 14,200  Level Kansas City Center
Mon 07:34:20 PM 38.4011 -91.2128 238° Southwest 356 410 16,600 2,115 Climbing Kansas City Center
Mon 07:35:20 PM 38.3489 -91.3164 237° Southwest 352 405 18,500 1,935 Climbing Kansas City Center
Mon 07:36:24 PM 38.2886 -91.4403 238° Southwest 360 414 20,600 1,872 Climbing Kansas City Center
Mon 07:37:25 PM 38.2336 -91.5494 237° Southwest 364 419 22,400 1,707 Climbing Kansas City Center
Mon 07:38:27 PM 38.1781 -91.6600 237° Southwest 369 425 24,100 1,869 Climbing Kansas City Center
Mon 07:39:27 PM 38.1483 -91.7831 253° West 368 423 26,200 2,032 Climbing Kansas City Center
Mon 07:40:31 PM 38.1394 -91.9383 266° West 367 422 28,300 1,742 Climbing Kansas City Center
Mon 07:41:31 PM 38.1306 -92.0700 265° West 372 428 29,800 1,258 Climbing Kansas City Center
Mon 07:42:35 PM 38.1211 -92.2158 265° West 385 443 30,900 1,056 Climbing Kansas City Center
Mon 07:43:36 PM 38.1117 -92.3586 265° West 402 463 32,000 541 Climbing Kansas City Center
Mon 07:44:37 PM 38.1017 -92.5128 265° West 434 499 32,000  Level Kansas City Center
Mon 07:45:39 PM 38.0894 -92.6683 264° West 444 511 32,000  Level Kansas City Center
Mon 07:46:43 PM 38.0767 -92.8383 265° West 448 516 32,000  Level Kansas City Center
Mon 07:47:44 PM 38.0644 -92.9967 264° West 451 519 32,000  Level Kansas City Center
Mon 07:48:45 PM 38.0522 -93.1525 264° West 447 514 32,000  Level Kansas City Center
Mon 07:49:49 PM 38.0408 -93.3081 265° West 444 511 32,000  Level Kansas City Center
Mon 07:50:49 PM 38.0261 -93.4928 264° West 440 506 32,000  Level Kansas City Center
Mon 07:51:52 PM 38.0150 -93.6467 265° West 439 505 32,000  Level Kansas City Center
Mon 07:52:53 PM 38.0025 -93.8011 264° West 440 506 32,000  Level Kansas City Center
Mon 07:53:54 PM 37.9897 -93.9569 264° West 443 510 32,000  Level Kansas City Center
Mon 07:54:58 PM 37.9761 -94.1169 264° West 446 513 32,000  Level Kansas City Center
Mon 07:55:59 PM 37.9631 -94.2708 264° West 448 516 32,000  Level Kansas City Center
Mon 07:56:59 PM 37.9489 -94.4422 264° West 447 514 32,000  Level Kansas City Center
Mon 07:58:03 PM 37.9353 -94.5942 264° West 449 517 32,000  Level Kansas City Center
Mon 07:59:04 PM 37.9200 -94.7706 264° West 452 520 32,000  Level Kansas City Center
Mon 08:00:10 PM 37.9042 -94.9447 263° West 447 514 32,000  Level Kansas City Center
Mon 08:01:11 PM 37.8908 -95.0947 264° West 447 514 32,000  Level Kansas City Center
Mon 08:02:14 PM 37.8775 -95.2389 263° West 445 512 32,000  Level Kansas City Center
Mon 08:03:15 PM 37.8589 -95.4236 263° West 444 511 32,000 -793 Level Kansas City Center
Mon 08:04:15 PM 37.8442 -95.5800 263° West 445 512 30,400 -2,613 Descending Kansas City Center
Mon 08:05:19 PM 37.8292 -95.7367 263° West 448 516 26,600 -3,744 Descending Kansas City Center
Mon 08:06:20 PM 37.8133 -95.8861 262° West 439 505 22,600 -3,223 Descending Kansas City Center
Mon 08:07:20 PM 37.8000 -96.0239 263° West 411 473 20,100 -1,452 Descending Kansas City Center
Mon 08:08:24 PM 37.7869 -96.1500 263° West 389 448 19,600 -532 Descending Kansas City Center
Mon 08:09:24 PM 37.7581 -96.3097 257° West 389 448 19,000 -532 Descending Kansas City Center
Mon 08:10:28 PM 37.7339 -96.4447 265° West 393 452 18,500 -991 Descending Kansas City Center
Mon 08:11:00 PM 37.7326 -96.4932 265° West  Level FlightAware Approximate
Mon 08:11:19 PM 37.7167 -96.5611 259° West 404 465 17,100  Level Kansas City Center
Mon 08:12:29 PM 37.7069 -96.7203 266° West 394 453 14,000 -2,797 Descending Kansas City Center
Mon 08:13:32 PM 37.6964 -96.8531 264° West 350 403 10,900 -2,081 Descending Kansas City Center
Mon 08:14:33 PM 37.6994 -96.9636 272° West 299 344 9,700 -2,132 Descending Kansas City Center
Mon 08:15:33 PM 37.7056 -97.0658 274° West 263 303 6,600 -2,579 Descending Kansas City Center
Mon 08:16:34 PM 37.7122 -97.1547 275° West 255 293 4,500 -1,279 Descending Kansas City Center
Mon 08:17:35 PM 37.7197 -97.2303 277° West 202 232 4,000 -443 Descending Kansas City Center
Mon 08:18:36 PM 37.7217 -97.2908 272° West 171 197 3,600 -632 Descending Kansas City Center
Mon 08:19:29 PM 37.7128 -97.3506 259° West 180 207 2,800 -850 Descending Kansas City Center
Mon 08:20:36 PM 37.6908 -97.4042 243° Southwest 166 191 1,900 -604 Descending Kansas City Center
Mon 08:21:48 PM 37.6481 -97.4222 198° South 154 177 1,400 -417 Descending Kansas City Center
Mon 08:23:00 PM 37.6333 -97.4167 238° Southwest  Level FlightAware Approximate
Mon 08:30:00 PM 37.6499 -97.4331 238° Southwest  Level Estimated
Mon 08:31:00 PM 37.6499 -97.4331 238° Southwest  Level Estimated

Login

Don't have an account? Register now (free) for customized features, flight alerts, and more!